KDAW

Details ICAO KDAW
Name SKYHAVEN
Region United States
Timezone America/New_York (UTC-5.0)
Plans Departing 5
Arriving 3
Stats Elevation 322 ft / 98 m (AMSL)
Location 43.284061° -70.929255°
Runways 1
Magnetic Variation 14.949° W
Sunrise 2017-12-17 12:11:55 UTC / 2017-12-17 07:11:55 Local
Sunset 2017-12-17 21:10:41 UTC / 2017-12-17 16:10:41 Local
Advertisement - Login to hide

Runways

ID Width Length Bearing (true) Bearing (mag) Surface Threshold Offset Overrun Length
15 100 ft / 30 m 3,996 ft / 1,218 m 130.95° 145.90° Asphalt 0 ft / 0 m 0 ft / 0 m
33 100 ft / 30 m 3,996 ft / 1,218 m 310.96° 325.91° Asphalt 0 ft / 0 m 0 ft / 0 m

Map

Weather


0- 5 10 15 20 25 30 35+ Temperature / ° C

Clouds and Precipitation
Forecast for 2017-12-17 12:00 UTC. Updated an hour ago

Ground ~20,000 ft ~40,000 ft Winds

METAR

KDAW 171151Z AUTO 00000KT 10SM CLR M12/M16 A3022 RMK AO2 SLP235 T11171156 11089 21128 53022

TAF

Not found

Frequencies

Recorded 135.27 MHz ASOS
Approach 125.05 MHz BOSTON APP/DEP
Unicom 122.70 MHz CTAF/UNICOM
Approach 128.20 MHz BOSTON APP/DEP
Warning: Do not use this data for real-world aviation or navigation. No guarantee of current accuracy is given.